createdAt,value
2022-09-04T00:00:08.681Z,101446.22
2022-09-04T00:03:15.649Z,101450.25
2022-09-04T00:05:52.598Z,101444.59
2022-09-04T00:08:42.265Z,101442.25
2022-09-04T00:11:21.266Z,101448.50
2022-09-04T00:13:58.329Z,101458.41
2022-09-04T00:16:39.309Z,101448.31
2022-09-04T00:19:17.104Z,101447.81
2022-09-04T00:21:54.161Z,101444.41
2022-09-04T00:24:28.217Z,101449.53
2022-09-04T00:27:05.439Z,101444.22
2022-09-04T00:29:48.466Z,101447.69
2022-09-04T00:32:34.750Z,101450.25
2022-09-04T00:35:14.209Z,101451.41
2022-09-04T00:37:49.359Z,101457.22
2022-09-04T00:40:27.594Z,101462.72
2022-09-04T00:43:35.980Z,101461.94
2022-09-04T00:46:52.040Z,101464.56
2022-09-04T00:49:57.382Z,101465.47
2022-09-04T00:52:58.330Z,101457.66
2022-09-04T00:55:50.714Z,101468.00
2022-09-04T00:58:51.834Z,101473.31
2022-09-04T01:01:25.984Z,101479.22
2022-09-04T01:04:23.457Z,101485.47
2022-09-04T01:07:14.638Z,101481.94
2022-09-04T01:10:20.438Z,101483.69
2022-09-04T01:13:02.113Z,101479.75
2022-09-04T01:15:41.790Z,101487.09
2022-09-04T01:18:19.863Z,101488.94
2022-09-04T01:21:11.837Z,101481.09
2022-09-04T01:24:18.882Z,101490.91
2022-09-04T01:26:57.307Z,101484.66
2022-09-04T01:29:39.927Z,101487.13
2022-09-04T01:32:19.515Z,101493.13
2022-09-04T01:35:02.753Z,101480.84
2022-09-04T01:37:44.431Z,101491.16
2022-09-04T01:40:42.004Z,101482.75
2022-09-04T01:43:17.550Z,101497.59
2022-09-04T01:46:35.952Z,101486.28
2022-09-04T01:49:14.785Z,101486.41
2022-09-04T01:51:55.334Z,101482.91
2022-09-04T01:54:51.809Z,101490.75
2022-09-04T01:57:38.475Z,101488.13
2022-09-04T02:00:13.806Z,101488.63
2022-09-04T02:02:56.652Z,101488.88
2022-09-04T02:05:37.726Z,101485.50
2022-09-04T02:08:27.589Z,101489.03
2022-09-04T02:11:07.209Z,101488.03
2022-09-04T02:13:53.731Z,101486.38
2022-09-04T02:16:35.246Z,101487.16
2022-09-04T02:19:16.806Z,101478.38
2022-09-04T02:21:56.182Z,101476.91
2022-09-04T02:24:40.196Z,101483.53
2022-09-04T02:27:20.644Z,101483.78
2022-09-04T02:29:59.634Z,101479.41
2022-09-04T02:32:38.845Z,101490.38
2022-09-04T02:35:18.025Z,101485.97
2022-09-04T02:38:08.723Z,101487.00
2022-09-04T02:40:51.109Z,101488.03
2022-09-04T02:43:47.346Z,101486.31
2022-09-04T02:46:27.336Z,101491.56
2022-09-04T02:49:13.237Z,101500.34
2022-09-04T02:52:01.935Z,101498.59
2022-09-04T02:54:57.693Z,101495.19
2022-09-04T02:57:41.392Z,101499.50
2022-09-04T03:00:15.430Z,101489.97
2022-09-04T03:02:56.595Z,101494.19
2022-09-04T03:05:32.096Z,101494.13
2022-09-04T03:08:08.934Z,101495.69
2022-09-04T03:10:45.948Z,101492.28
2022-09-04T03:13:24.246Z,101482.22
2022-09-04T03:15:58.283Z,101487.22
2022-09-04T03:18:35.204Z,101490.81
2022-09-04T03:21:14.638Z,101490.84
2022-09-04T03:23:51.511Z,101494.06
2022-09-04T03:26:27.757Z,101494.38
2022-09-04T03:29:10.168Z,101504.78
2022-09-04T03:31:51.038Z,101503.00
2022-09-04T03:34:43.404Z,101501.28
2022-09-04T03:37:42.021Z,101502.16
2022-09-04T03:40:25.880Z,101510.00
2022-09-04T03:43:21.888Z,101508.19
2022-09-04T03:46:02.101Z,101509.13
2022-09-04T03:48:57.993Z,101509.97
2022-09-04T03:51:40.005Z,101508.25
2022-09-04T03:54:33.465Z,101515.22
2022-09-04T03:57:25.090Z,101518.69
2022-09-04T04:00:08.317Z,101510.78
2022-09-04T04:03:00.755Z,101517.81
2022-09-04T04:05:59.842Z,101524.69
2022-09-04T04:08:51.140Z,101523.84
2022-09-04T04:12:10.600Z,101525.59
2022-09-04T04:15:04.212Z,101534.22
2022-09-04T04:18:05.340Z,101525.59
2022-09-04T04:21:00.503Z,101526.47
2022-09-04T04:24:21.244Z,101532.53
2022-09-04T04:27:09.703Z,101531.66
2022-09-04T04:30:05.793Z,101537.72
2022-09-04T04:32:51.204Z,101544.59
2022-09-04T04:35:30.274Z,101542.06
2022-09-04T04:38:27.549Z,101537.75
2022-09-04T04:41:30.833Z,101541.19
2022-09-04T04:44:14.169Z,101542.94
2022-09-04T04:47:01.910Z,101543.72
2022-09-04T04:49:57.720Z,101548.16
2022-09-04T04:52:45.650Z,101540.34
2022-09-04T04:55:31.299Z,101550.75
2022-09-04T04:58:29.976Z,101560.25
2022-09-04T05:01:15.617Z,101561.16
2022-09-04T05:04:07.716Z,101569.81
2022-09-04T05:06:43.461Z,101565.44
2022-09-04T05:09:26.740Z,101581.03
2022-09-04T05:12:04.528Z,101586.25
2022-09-04T05:14:47.383Z,101594.03
2022-09-04T05:17:38.625Z,101595.72
2022-09-04T05:20:27.370Z,101602.72
2022-09-04T05:23:14.422Z,101600.13
2022-09-04T05:25:53.968Z,101605.31
2022-09-04T05:28:36.293Z,101606.25
2022-09-04T05:31:18.114Z,101617.31
2022-09-04T05:34:00.245Z,101616.56
2022-09-04T05:36:42.237Z,101620.88
2022-09-04T05:39:25.817Z,101625.22
2022-09-04T05:42:11.756Z,101631.38
2022-09-04T05:44:58.256Z,101632.19
2022-09-04T05:47:43.063Z,101638.28
2022-09-04T05:50:42.590Z,101640.81
2022-09-04T05:53:43.638Z,101645.00
2022-09-04T05:56:51.487Z,101643.47
2022-09-04T05:59:46.064Z,101652.97
2022-09-04T06:02:42.412Z,101652.19
2022-09-04T06:05:51.839Z,101649.56
2022-09-04T06:08:41.570Z,101667.81
2022-09-04T06:11:42.052Z,101663.44
2022-09-04T06:14:37.883Z,101660.78
2022-09-04T06:17:29.467Z,101651.31
2022-09-04T06:20:20.007Z,101667.81
2022-09-04T06:23:32.975Z,101665.22
2022-09-04T06:26:36.880Z,101664.31
2022-09-04T06:29:47.818Z,101664.28
2022-09-04T06:33:08.114Z,101660.81
2022-09-04T06:36:09.073Z,101660.84
2022-09-04T06:38:54.462Z,101670.38
2022-09-04T06:41:48.671Z,101664.00
2022-09-04T06:44:34.639Z,101668.59
2022-09-04T06:47:23.042Z,101663.34
2022-09-04T06:50:20.072Z,101674.63
2022-09-04T06:53:09.165Z,101669.16
2022-09-04T06:55:58.166Z,101673.81
2022-09-04T06:59:08.902Z,101683.34
2022-09-04T07:01:52.344Z,101690.31
2022-09-04T07:04:44.232Z,101685.13
2022-09-04T07:07:23.609Z,101687.72
2022-09-04T07:10:01.707Z,101701.59
2022-09-04T07:13:13.216Z,101701.63
2022-09-04T07:15:59.103Z,101701.50
2022-09-04T07:19:11.577Z,101688.34
2022-09-04T07:21:54.819Z,101682.97
2022-09-04T07:24:58.108Z,101686.78
2022-09-04T07:27:43.255Z,101688.50
2022-09-04T07:30:16.207Z,101689.06
2022-09-04T07:32:54.419Z,101688.41
2022-09-04T07:35:34.400Z,101699.78
2022-09-04T07:38:20.247Z,101698.97
2022-09-04T07:40:54.260Z,101700.63
2022-09-04T07:43:43.573Z,101695.75
2022-09-04T07:46:22.327Z,101694.41
2022-09-04T07:48:57.996Z,101693.53
2022-09-04T07:51:37.818Z,101702.00
2022-09-04T07:54:38.617Z,101704.91
2022-09-04T07:57:56.622Z,101710.88
2022-09-04T08:00:25.488Z,101702.09
2022-09-04T08:03:33.715Z,101708.44
2022-09-04T08:06:15.278Z,101724.44
2022-09-04T08:09:09.544Z,101722.13
2022-09-04T08:12:05.966Z,101726.47
2022-09-04T08:14:55.724Z,101732.44
2022-09-04T08:17:51.950Z,101730.56
2022-09-04T08:20:39.693Z,101722.97
2022-09-04T08:23:42.881Z,101730.25
2022-09-04T08:26:24.222Z,101720.41
2022-09-04T08:29:21.248Z,101729.84
2022-09-04T08:32:08.762Z,101724.94
2022-09-04T08:34:57.719Z,101718.28
2022-09-04T08:37:33.702Z,101721.38
2022-09-04T08:40:46.561Z,101725.53
2022-09-04T08:43:39.407Z,101713.97
2022-09-04T08:46:38.376Z,101712.19
2022-09-04T08:49:56.312Z,101716.19
2022-09-04T08:53:11.298Z,101713.03
2022-09-04T08:56:00.938Z,101717.16
2022-09-04T08:59:23.411Z,101720.88
2022-09-04T09:02:38.198Z,101719.53
2022-09-04T09:05:59.638Z,101731.41
2022-09-04T09:09:23.399Z,101724.00
2022-09-04T09:12:42.050Z,101719.00
2022-09-04T09:15:39.918Z,101719.28
2022-09-04T09:18:47.399Z,101714.94
2022-09-04T09:21:39.751Z,101718.28
2022-09-04T09:24:43.355Z,101720.81
2022-09-04T09:27:56.972Z,101715.84
2022-09-04T09:30:26.251Z,101712.75
2022-09-04T09:33:54.614Z,101719.41
2022-09-04T09:37:03.286Z,101708.81
2022-09-04T09:40:05.570Z,101704.94
2022-09-04T09:43:11.257Z,101710.78
2022-09-04T09:46:10.259Z,101704.22
2022-09-04T09:49:27.269Z,101712.69
2022-09-04T09:53:01.288Z,101716.91
2022-09-04T09:56:15.043Z,101717.34
2022-09-04T09:59:45.905Z,101700.22
2022-09-04T10:03:04.077Z,101707.47
2022-09-04T10:06:22.839Z,101706.09
2022-09-04T10:09:30.000Z,101711.81
2022-09-04T10:13:00.673Z,101711.25
2022-09-04T10:16:45.849Z,101697.88
2022-09-04T10:19:51.416Z,101695.03
2022-09-04T10:23:17.386Z,101711.81
2022-09-04T10:26:26.997Z,101708.63
2022-09-04T10:29:50.584Z,101709.72
2022-09-04T10:32:51.209Z,101710.56
2022-09-04T10:35:32.476Z,101715.13
2022-09-04T10:38:37.324Z,101698.44
2022-09-04T10:42:05.549Z,101713.19
2022-09-04T10:45:09.118Z,101714.06
2022-09-04T10:48:42.898Z,101718.06
2022-09-04T10:52:00.120Z,101717.97
2022-09-04T10:55:02.822Z,101712.69
2022-09-04T10:58:10.589Z,101709.69
2022-09-04T11:01:04.011Z,101709.16
2022-09-04T11:04:13.945Z,101694.41
2022-09-04T11:07:18.754Z,101704.38
2022-09-04T11:10:09.502Z,101704.78
2022-09-04T11:13:10.039Z,101712.19
2022-09-04T11:16:25.343Z,101707.09
2022-09-04T11:19:32.307Z,101722.78
2022-09-04T11:22:55.196Z,101708.59
2022-09-04T11:26:06.764Z,101717.66
2022-09-04T11:29:12.378Z,101710.91
2022-09-04T11:32:12.255Z,101703.44
2022-09-04T11:35:29.734Z,101692.84
2022-09-04T11:38:09.448Z,101699.22
2022-09-04T11:41:32.709Z,101695.53
2022-09-04T11:44:27.011Z,101701.59
2022-09-04T11:47:54.491Z,101693.44
2022-09-04T11:50:46.201Z,101689.34
2022-09-04T11:53:43.789Z,101679.94
2022-09-04T11:56:55.448Z,101669.56
2022-09-04T11:59:47.348Z,101688.09
2022-09-04T12:03:13.977Z,101679.19
2022-09-04T12:06:08.316Z,101680.00
2022-09-04T12:09:11.836Z,101679.72
2022-09-04T12:12:25.424Z,101680.75
2022-09-04T12:15:16.692Z,101676.09
2022-09-04T12:18:33.584Z,101682.28
2022-09-04T12:21:43.412Z,101674.88
2022-09-04T12:24:42.740Z,101661.69
2022-09-04T12:27:53.520Z,101667.25
2022-09-04T12:30:23.666Z,101669.06
2022-09-04T12:33:46.301Z,101657.78
2022-09-04T12:36:46.897Z,101656.00
2022-09-04T12:39:39.503Z,101664.81
2022-09-04T12:42:17.817Z,101667.94
2022-09-04T12:45:02.166Z,101670.34
2022-09-04T12:47:49.154Z,101666.41
2022-09-04T12:50:34.531Z,101661.50
2022-09-04T12:53:37.121Z,101668.09
2022-09-04T12:56:13.622Z,101671.75
2022-09-04T12:59:06.867Z,101672.53
2022-09-04T13:01:59.309Z,101662.91
2022-09-04T13:04:41.207Z,101666.31
2022-09-04T13:07:31.593Z,101669.72
2022-09-04T13:10:21.091Z,101667.63
2022-09-04T13:13:07.315Z,101671.94
2022-09-04T13:15:54.843Z,101663.34
2022-09-04T13:18:50.023Z,101666.19
2022-09-04T13:21:40.014Z,101668.50
2022-09-04T13:24:35.767Z,101660.22
2022-09-04T13:27:26.564Z,101665.81
2022-09-04T13:30:08.020Z,101669.50
2022-09-04T13:32:56.424Z,101667.78
2022-09-04T13:35:44.488Z,101656.72
2022-09-04T13:38:40.936Z,101675.31
2022-09-04T13:42:06.271Z,101682.19
2022-09-04T13:44:59.817Z,101677.31
2022-09-04T13:47:40.299Z,101681.09
2022-09-04T13:50:17.304Z,101683.13
2022-09-04T13:52:54.413Z,101685.25
2022-09-04T13:55:27.349Z,101679.66
2022-09-04T13:58:10.867Z,101687.00
2022-09-04T14:00:47.290Z,101685.84
2022-09-04T14:03:31.792Z,101689.88
2022-09-04T14:06:01.145Z,101675.03
2022-09-04T14:08:31.419Z,101679.84
2022-09-04T14:11:30.211Z,101686.63
2022-09-04T14:14:45.826Z,101684.75
2022-09-04T14:17:13.706Z,101687.06
2022-09-04T14:19:57.634Z,101682.06
2022-09-04T14:22:44.964Z,101680.31
2022-09-04T14:25:22.693Z,101680.84
2022-09-04T14:28:03.913Z,101673.63
2022-09-04T14:30:45.519Z,101683.63
2022-09-04T14:33:34.605Z,101682.78
2022-09-04T14:36:18.504Z,101679.63
2022-09-04T14:39:16.589Z,101679.25
2022-09-04T14:42:12.348Z,101684.22
2022-09-04T14:45:16.322Z,101688.81
2022-09-04T14:47:54.862Z,101688.03
2022-09-04T14:50:28.505Z,101692.19
2022-09-04T14:53:00.814Z,101690.56
2022-09-04T14:55:32.008Z,101692.31
2022-09-04T14:58:10.137Z,101691.94
2022-09-04T15:01:01.332Z,101700.00
2022-09-04T15:03:37.028Z,101692.31
2022-09-04T15:06:16.264Z,101683.94
2022-09-04T15:08:46.394Z,101682.00
2022-09-04T15:11:31.843Z,101689.66
2022-09-04T15:14:07.441Z,101687.47
2022-09-04T15:16:49.840Z,101681.69
2022-09-04T15:19:47.625Z,101682.72
2022-09-04T15:22:25.244Z,101686.63
2022-09-04T15:25:02.062Z,101682.66
2022-09-04T15:27:44.557Z,101688.00
2022-09-04T15:30:21.634Z,101686.22
2022-09-04T15:32:51.808Z,101688.28
2022-09-04T15:35:32.799Z,101690.25
2022-09-04T15:38:11.252Z,101686.03
2022-09-04T15:41:05.856Z,101695.63
2022-09-04T15:43:42.693Z,101700.47
2022-09-04T15:46:22.968Z,101699.06
2022-09-04T15:49:13.786Z,101692.31
2022-09-04T15:51:51.638Z,101694.16
2022-09-04T15:54:51.157Z,101702.47
2022-09-04T15:57:26.165Z,101695.13
2022-09-04T16:00:02.247Z,101705.50
2022-09-04T16:02:43.605Z,101699.75
2022-09-04T16:05:23.621Z,101699.22
2022-09-04T16:08:04.121Z,101702.31
2022-09-04T16:10:50.075Z,101700.75
2022-09-04T16:13:41.627Z,101701.03
2022-09-04T16:16:18.320Z,101709.56
2022-09-04T16:19:02.474Z,101714.84
2022-09-04T16:21:45.457Z,101715.00
2022-09-04T16:24:20.661Z,101705.44
2022-09-04T16:26:54.429Z,101715.88
2022-09-04T16:29:36.327Z,101720.19
2022-09-04T16:32:12.202Z,101720.13
2022-09-04T16:34:49.849Z,101718.03
2022-09-04T16:37:28.450Z,101724.38
2022-09-04T16:40:14.626Z,101728.22
2022-09-04T16:42:51.007Z,101726.22
2022-09-04T16:45:26.229Z,101726.81
2022-09-04T16:48:12.703Z,101734.50
2022-09-04T16:51:29.217Z,101740.72
2022-09-04T16:54:04.117Z,101741.16
2022-09-04T16:56:40.510Z,101745.72
2022-09-04T16:59:25.595Z,101743.41
2022-09-04T17:02:02.443Z,101756.84
2022-09-04T17:04:40.336Z,101749.69
2022-09-04T17:07:21.423Z,101749.88
2022-09-04T17:10:01.690Z,101752.53
2022-09-04T17:12:52.582Z,101747.50
2022-09-04T17:15:33.670Z,101764.66
2022-09-04T17:18:09.581Z,101756.25
2022-09-04T17:22:08.496Z,101762.66
2022-09-04T17:28:58.372Z,101760.75
2022-09-04T17:29:00.321Z,101759.91
2022-09-04T17:29:41.717Z,101769.59
2022-09-04T17:33:04.166Z,101771.66
2022-09-04T17:40:38.421Z,101768.59
2022-09-04T17:40:47.149Z,101768.38
2022-09-04T17:41:39.556Z,101778.13
2022-09-04T17:44:33.921Z,101779.19
2022-09-04T17:47:26.326Z,101778.41
2022-09-04T17:49:55.796Z,101790.03
2022-09-04T17:52:28.245Z,101789.00
2022-09-04T17:55:06.134Z,101794.34
2022-09-04T17:57:57.336Z,101796.91
2022-09-04T18:00:34.342Z,101792.63
2022-09-04T18:03:13.736Z,101803.09
2022-09-04T18:05:53.608Z,101800.56
2022-09-04T18:08:32.491Z,101804.41
2022-09-04T18:11:12.101Z,101797.25
2022-09-04T18:13:53.309Z,101809.63
2022-09-04T18:17:12.252Z,101814.06
2022-09-04T18:19:46.288Z,101813.47
2022-09-04T18:22:33.626Z,101823.69
2022-09-04T18:25:16.382Z,101825.06
2022-09-04T18:28:06.300Z,101831.91
2022-09-04T18:37:06.944Z,101830.75
2022-09-04T18:37:20.137Z,101825.91
2022-09-04T18:37:23.764Z,101841.47
2022-09-04T18:40:03.801Z,101829.63
2022-09-04T18:50:20.386Z,101837.00
2022-09-04T18:50:24.918Z,101842.38
2022-09-04T18:50:37.221Z,101849.66
2022-09-04T18:51:31.400Z,101852.38
2022-09-04T18:54:11.909Z,101855.03
2022-09-04T18:56:45.356Z,101858.66
2022-09-04T18:59:20.385Z,101863.81
2022-09-04T19:02:00.788Z,101874.06
2022-09-04T19:04:52.602Z,101868.41
2022-09-04T19:07:32.438Z,101867.63
2022-09-04T19:10:17.698Z,101866.84
2022-09-04T19:13:01.841Z,101866.78
2022-09-04T19:15:45.717Z,101870.50
2022-09-04T19:18:27.348Z,101860.16
2022-09-04T19:21:23.355Z,101866.56
2022-09-04T19:24:01.072Z,101870.25
2022-09-04T19:26:42.207Z,101872.69
2022-09-04T19:29:19.396Z,101865.44
2022-09-04T19:31:58.677Z,101873.31
2022-09-04T19:34:39.733Z,101865.44
2022-09-04T19:38:15.411Z,101863.78
2022-09-04T19:46:05.698Z,101864.72
2022-09-04T19:46:17.279Z,101866.88
2022-09-04T19:46:31.750Z,101867.22
2022-09-04T19:53:19.181Z,101868.97
2022-09-04T19:53:22.119Z,101863.66
2022-09-04T19:55:25.009Z,101862.94
2022-09-04T19:58:07.223Z,101870.97
2022-09-04T20:00:44.494Z,101861.47
2022-09-04T20:03:29.962Z,101873.63
2022-09-04T20:06:09.273Z,101875.09
2022-09-04T20:08:58.022Z,101883.50
2022-09-04T20:11:35.934Z,101879.25
2022-09-04T20:14:15.383Z,101884.44
2022-09-04T20:17:00.904Z,101880.00
2022-09-04T20:19:42.910Z,101877.75
2022-09-04T20:22:29.384Z,101871.53
2022-09-04T20:25:29.048Z,101875.97
2022-09-04T20:28:15.227Z,101878.09
2022-09-04T20:30:49.441Z,101882.09
2022-09-04T20:33:24.688Z,101880.59
2022-09-04T20:35:59.740Z,101889.09
2022-09-04T20:38:42.028Z,101885.28
2022-09-04T20:41:19.528Z,101887.97
2022-09-04T20:44:03.430Z,101900.00
2022-09-04T20:52:42.576Z,101896.69
2022-09-04T20:52:43.478Z,101893.59
2022-09-04T20:53:07.952Z,101899.25
2022-09-04T20:55:52.174Z,101907.44
2022-09-04T21:03:12.920Z,101891.94
2022-09-04T21:03:26.281Z,101897.19
2022-09-04T21:04:48.613Z,101903.84
2022-09-04T21:07:29.556Z,101909.69
2022-09-04T21:10:12.124Z,101919.41
2022-09-04T21:12:47.177Z,101916.91
2022-09-04T21:15:37.439Z,101922.41
2022-09-04T21:18:31.285Z,101924.88
2022-09-04T21:21:22.192Z,101927.06
2022-09-04T21:24:42.920Z,101922.66
2022-09-04T21:27:35.701Z,101937.19
2022-09-04T21:30:10.025Z,101932.13
2022-09-04T21:33:26.602Z,101926.09
2022-09-04T21:36:26.731Z,101928.03
2022-09-04T21:39:39.085Z,101931.59
2022-09-04T21:42:47.437Z,101925.19
2022-09-04T21:45:32.734Z,101937.63
2022-09-04T21:48:24.304Z,101934.81
2022-09-04T21:51:17.058Z,101941.94
2022-09-04T21:54:37.766Z,101942.06
2022-09-04T22:02:29.394Z,101951.22
2022-09-04T22:02:36.343Z,101946.56
2022-09-04T22:04:23.280Z,101943.22
2022-09-04T22:10:06.681Z,101946.78
2022-09-04T22:13:38.392Z,101955.47
2022-09-04T22:13:46.417Z,101949.00
2022-09-04T22:16:30.719Z,101959.09
2022-09-04T22:19:23.454Z,101961.69
2022-09-04T22:22:20.987Z,101959.38
2022-09-04T22:25:17.003Z,101956.16
2022-09-04T22:28:46.371Z,101959.91
2022-09-04T22:32:02.950Z,101967.25
2022-09-04T22:35:20.004Z,101963.09
2022-09-04T22:38:26.571Z,101961.34
2022-09-04T22:41:12.537Z,101965.06
2022-09-04T22:43:47.853Z,101962.91
2022-09-04T22:46:44.163Z,101963.28
2022-09-04T22:49:48.827Z,101969.00
2022-09-04T22:52:42.186Z,101974.66
2022-09-04T22:56:08.387Z,101972.50
2022-09-04T22:59:26.806Z,101969.19
2022-09-04T23:03:07.256Z,101967.47
2022-09-04T23:05:46.800Z,101977.38
2022-09-04T23:13:44.395Z,101982.69
2022-09-04T23:13:58.479Z,101974.00
2022-09-04T23:15:10.165Z,101972.03
2022-09-04T23:20:51.507Z,101978.41
2022-09-04T23:26:39.235Z,101969.47
2022-09-04T23:26:44.648Z,101971.03
2022-09-04T23:27:46.857Z,101972.66
2022-09-04T23:30:25.158Z,101969.38
2022-09-04T23:33:42.458Z,101978.22
2022-09-04T23:36:41.078Z,101974.94
2022-09-04T23:40:05.903Z,101979.25
2022-09-04T23:43:20.767Z,101971.25
2022-09-04T23:46:31.296Z,101973.16
2022-09-04T23:49:32.191Z,101969.66
2022-09-04T23:52:13.465Z,101972.31
2022-09-04T23:55:17.671Z,101980.25
2022-09-04T23:58:21.785Z,101977.38
